createdAt,value
2018-08-06T00:00:29.084Z,57.57
2018-08-06T00:02:57.515Z,57.68
2018-08-06T00:05:25.856Z,58.06
2018-08-06T00:07:54.191Z,58.56
2018-08-06T00:10:24.456Z,58.37
2018-08-06T00:12:52.866Z,58.40
2018-08-06T00:15:21.804Z,57.58
2018-08-06T00:17:50.149Z,58.13
2018-08-06T00:20:18.596Z,57.46
2018-08-06T00:22:46.908Z,58.83
2018-08-06T00:25:16.169Z,58.35
2018-08-06T00:27:44.841Z,59.04
2018-08-06T00:30:18.223Z,59.19
2018-08-06T00:32:47.343Z,58.37
2018-08-06T00:35:16.160Z,58.36
2018-08-06T00:37:45.493Z,59.02
2018-08-06T00:40:16.266Z,59.57
2018-08-06T00:42:45.365Z,58.42
2018-08-06T00:45:16.651Z,59.53
2018-08-06T00:47:45.609Z,59.50
2018-08-06T00:50:14.046Z,60.12
2018-08-06T00:52:42.392Z,59.89
2018-08-06T00:55:13.185Z,59.70
2018-08-06T00:57:41.792Z,59.79
2018-08-06T01:00:12.882Z,59.51
2018-08-06T01:02:41.203Z,59.34
2018-08-06T01:05:11.128Z,59.47
2018-08-06T01:07:40.115Z,59.67
2018-08-06T01:10:10.534Z,59.08
2018-08-06T01:12:40.045Z,60.15
2018-08-06T01:15:09.595Z,59.35
2018-08-06T01:17:38.133Z,59.92
2018-08-06T01:20:08.096Z,59.86
2018-08-06T01:22:36.632Z,61.14
2018-08-06T01:25:05.320Z,59.67
2018-08-06T01:27:34.209Z,59.47
2018-08-06T01:30:03.000Z,59.38
2018-08-06T01:32:31.379Z,59.71
2018-08-06T01:34:59.712Z,59.96
2018-08-06T01:37:28.083Z,60.76
2018-08-06T01:39:56.412Z,60.64
2018-08-06T01:42:24.723Z,60.69
2018-08-06T01:44:53.067Z,60.48
2018-08-06T01:47:21.407Z,60.80
2018-08-06T01:49:49.775Z,59.99
2018-08-06T01:52:18.307Z,60.02
2018-08-06T01:54:46.598Z,60.92
2018-08-06T01:57:14.924Z,61.34
2018-08-06T01:59:43.756Z,61.06
2018-08-06T02:02:12.112Z,60.62
2018-08-06T02:04:40.508Z,62.07
2018-08-06T02:07:09.193Z,61.54
2018-08-06T02:09:37.676Z,62.08
2018-08-06T02:12:06.501Z,61.26
2018-08-06T02:14:34.953Z,62.79
2018-08-06T02:17:03.335Z,63.18
2018-08-06T02:19:31.663Z,61.43
2018-08-06T02:21:59.983Z,61.23
2018-08-06T02:24:28.319Z,62.45
2018-08-06T02:26:56.669Z,61.83
2018-08-06T02:29:24.996Z,61.54
2018-08-06T02:31:53.299Z,62.06
2018-08-06T02:34:21.643Z,61.50
2018-08-06T02:36:49.974Z,61.68
2018-08-06T02:39:18.319Z,62.53
2018-08-06T02:41:46.668Z,62.54
2018-08-06T02:44:15.015Z,62.63
2018-08-06T02:46:43.344Z,62.04
2018-08-06T02:49:11.689Z,62.54
2018-08-06T02:51:40.355Z,62.30
2018-08-06T02:54:08.698Z,62.22
2018-08-06T02:56:37.057Z,64.36
2018-08-06T02:59:05.412Z,63.67
2018-08-06T03:01:33.743Z,63.08
2018-08-06T03:04:02.208Z,63.98
2018-08-06T03:06:30.548Z,62.74
2018-08-06T03:08:58.908Z,63.84
2018-08-06T03:11:27.290Z,63.82
2018-08-06T03:13:55.616Z,63.71
2018-08-06T03:16:23.957Z,63.84
2018-08-06T03:18:52.468Z,63.75
2018-08-06T03:21:20.806Z,63.57
2018-08-06T03:23:49.150Z,63.99
2018-08-06T03:26:17.455Z,63.95
2018-08-06T03:28:45.816Z,64.21
2018-08-06T03:31:14.148Z,63.48
2018-08-06T03:33:42.491Z,64.83
2018-08-06T03:36:11.047Z,64.72
2018-08-06T03:38:39.377Z,64.59
2018-08-06T03:41:07.750Z,65.57
2018-08-06T03:43:36.124Z,65.46
2018-08-06T03:46:04.464Z,65.32
2018-08-06T03:48:32.850Z,65.79
2018-08-06T03:51:01.196Z,67.12
2018-08-06T03:53:29.531Z,65.92
2018-08-06T03:55:57.878Z,68.22
2018-08-06T03:58:26.219Z,66.78
2018-08-06T04:00:54.561Z,66.19
2018-08-06T04:03:22.923Z,66.10
2018-08-06T04:05:51.268Z,67.47
2018-08-06T04:08:19.649Z,67.31
2018-08-06T04:10:47.998Z,67.67
2018-08-06T04:13:16.350Z,67.48
2018-08-06T04:15:44.688Z,67.29
2018-08-06T04:18:13.114Z,67.36
2018-08-06T04:20:41.441Z,68.19
2018-08-06T04:23:09.809Z,67.32
2018-08-06T04:27:02.609Z,67.60
2018-08-06T04:29:30.954Z,67.25
2018-08-06T04:31:59.300Z,67.21
2018-08-06T04:34:27.652Z,68.17
2018-08-06T04:36:56.000Z,68.10
2018-08-06T04:39:24.333Z,67.76
2018-08-06T04:41:52.688Z,67.77
2018-08-06T04:44:21.024Z,67.98
2018-08-06T04:46:50.328Z,69.49
2018-08-06T04:49:18.678Z,68.23
2018-08-06T04:51:47.076Z,67.71
2018-08-06T04:54:15.454Z,67.56
2018-08-06T04:56:43.814Z,67.45
2018-08-06T04:59:12.146Z,67.47
2018-08-06T05:01:40.621Z,67.54
2018-08-06T05:04:08.972Z,68.15
2018-08-06T05:06:37.295Z,68.82
2018-08-06T05:09:09.068Z,67.79
2018-08-06T05:11:37.618Z,67.72
2018-08-06T05:14:05.970Z,67.90
2018-08-06T05:16:34.306Z,67.41
2018-08-06T05:19:02.631Z,67.33
2018-08-06T05:21:30.949Z,67.99
2018-08-06T05:24:00.130Z,69.14
2018-08-06T05:26:29.517Z,67.99
2018-08-06T05:28:57.852Z,68.27
2018-08-06T05:31:27.403Z,68.26
2018-08-06T05:33:56.501Z,68.08
2018-08-06T05:36:25.402Z,68.22
2018-08-06T05:38:55.216Z,67.59
2018-08-06T05:41:24.820Z,67.39
2018-08-06T05:43:54.314Z,67.58
2018-08-06T05:46:22.683Z,68.02
2018-08-06T05:48:51.106Z,67.69
2018-08-06T05:51:19.446Z,67.14
2018-08-06T05:53:47.787Z,67.39
2018-08-06T05:56:16.370Z,67.55
2018-08-06T05:58:44.719Z,67.27
2018-08-06T06:01:13.062Z,67.43
2018-08-06T06:03:41.387Z,67.15
2018-08-06T06:06:10.152Z,67.16
2018-08-06T06:08:39.454Z,67.07
2018-08-06T06:11:08.524Z,66.36
2018-08-06T06:13:36.869Z,67.03
2018-08-06T06:16:05.276Z,67.53
2018-08-06T06:18:33.600Z,65.98
2018-08-06T06:21:01.955Z,65.73
2018-08-06T06:23:30.282Z,65.80
2018-08-06T06:25:58.630Z,64.86
2018-08-06T06:28:27.146Z,65.41
2018-08-06T06:30:55.489Z,64.76
2018-08-06T06:33:23.801Z,63.90
2018-08-06T06:35:52.191Z,63.88
2018-08-06T06:38:20.512Z,64.20
2018-08-06T06:40:48.867Z,62.94
2018-08-06T06:43:17.203Z,63.48
2018-08-06T06:45:45.544Z,63.12
2018-08-06T06:48:13.855Z,62.24
2018-08-06T06:50:42.183Z,61.50
2018-08-06T06:53:10.523Z,62.28
2018-08-06T06:55:38.904Z,62.46
2018-08-06T06:58:07.279Z,62.35
2018-08-06T07:00:35.614Z,61.29
2018-08-06T07:03:03.980Z,56.99
2018-08-06T07:05:32.349Z,60.46
2018-08-06T07:08:00.722Z,55.34
2018-08-06T07:10:29.036Z,58.38
2018-08-06T07:12:57.352Z,57.73
2018-08-06T07:15:25.735Z,57.77
2018-08-06T07:17:54.077Z,56.71
2018-08-06T07:20:22.426Z,56.35
2018-08-06T07:22:51.024Z,56.03
2018-08-06T07:25:19.383Z,55.26
2018-08-06T07:27:47.749Z,55.76
2018-08-06T07:30:16.265Z,54.16
2018-08-06T07:32:45.068Z,52.67
2018-08-06T07:35:14.264Z,51.33
2018-08-06T07:37:42.743Z,51.13
2018-08-06T07:40:13.512Z,50.66
2018-08-06T07:42:41.845Z,48.02
2018-08-06T07:45:17.684Z,47.92
2018-08-06T07:47:46.695Z,46.52
2018-08-06T07:50:16.609Z,40.73
2018-08-06T07:52:44.963Z,44.09
2018-08-06T07:55:13.300Z,42.71
2018-08-06T07:57:41.657Z,43.13
2018-08-06T08:00:14.020Z,42.21
2018-08-06T08:02:42.705Z,40.85
2018-08-06T08:05:12.925Z,32.76
2018-08-06T08:07:42.339Z,36.74
2018-08-06T08:10:14.200Z,37.37
2018-08-06T08:12:42.776Z,36.29
2018-08-06T08:15:14.941Z,34.75
2018-08-06T08:17:44.254Z,31.72
2018-08-06T08:20:14.172Z,33.39
2018-08-06T08:22:42.680Z,34.52
2018-08-06T08:25:13.147Z,33.70
2018-08-06T08:27:41.492Z,33.84
2018-08-06T08:30:11.540Z,33.00
2018-08-06T08:32:39.888Z,33.04
2018-08-06T08:35:08.505Z,32.11
2018-08-06T08:37:36.900Z,32.38
2018-08-06T08:40:14.206Z,28.70
2018-08-06T08:42:42.651Z,30.99
2018-08-06T08:45:13.115Z,30.80
2018-08-06T08:47:42.392Z,30.19
2018-08-06T08:50:12.388Z,30.29
2018-08-06T08:52:41.647Z,30.17
2018-08-06T08:55:10.803Z,26.41
2018-08-06T08:57:39.348Z,30.10
2018-08-06T09:00:11.414Z,29.31
2018-08-06T09:02:39.725Z,29.15
2018-08-06T09:05:08.103Z,28.58
2018-08-06T09:07:37.113Z,28.53
2018-08-06T09:10:06.431Z,27.28
2018-08-06T09:12:34.778Z,27.29
2018-08-06T09:15:03.152Z,26.27
2018-08-06T09:17:31.607Z,26.02
2018-08-06T09:19:59.994Z,27.70
2018-08-06T09:22:28.327Z,25.44
2018-08-06T09:24:56.675Z,25.57
2018-08-06T09:27:25.125Z,27.59
2018-08-06T09:29:53.468Z,27.68
2018-08-06T09:32:21.809Z,25.26
2018-08-06T09:34:50.154Z,25.61
2018-08-06T09:37:18.494Z,25.63
2018-08-06T09:39:46.845Z,25.69
2018-08-06T09:42:15.176Z,25.57
2018-08-06T09:44:43.527Z,22.90
2018-08-06T09:47:11.866Z,24.39
2018-08-06T09:49:40.496Z,23.96
2018-08-06T09:52:08.843Z,25.24
2018-08-06T09:54:37.194Z,24.15
2018-08-06T09:57:05.684Z,24.38
2018-08-06T09:59:34.052Z,24.22
2018-08-06T10:02:02.399Z,25.36
2018-08-06T10:04:30.771Z,25.17
2018-08-06T10:06:59.120Z,23.78
2018-08-06T10:09:27.446Z,25.13
2018-08-06T10:11:55.816Z,24.78
2018-08-06T10:14:24.175Z,25.02
2018-08-06T10:16:52.498Z,24.26
2018-08-06T10:19:20.867Z,24.75
2018-08-06T10:21:49.187Z,24.36
2018-08-06T10:24:17.533Z,24.29
2018-08-06T10:26:45.885Z,23.37
2018-08-06T10:29:14.221Z,24.05
2018-08-06T10:31:42.524Z,23.99
2018-08-06T10:34:10.860Z,24.99
2018-08-06T10:36:39.210Z,24.54
2018-08-06T10:39:10.048Z,24.80
2018-08-06T10:41:38.810Z,24.79
2018-08-06T10:44:07.180Z,23.77
2018-08-06T10:46:35.532Z,23.64
2018-08-06T10:49:03.868Z,23.22
2018-08-06T10:51:32.296Z,24.00
2018-08-06T10:54:01.506Z,23.81
2018-08-06T10:56:29.841Z,22.28
2018-08-06T10:58:58.381Z,24.09
2018-08-06T11:01:26.689Z,22.86
2018-08-06T11:03:55.109Z,23.83
2018-08-06T11:06:23.460Z,25.81
2018-08-06T11:08:51.878Z,27.13
2018-08-06T11:11:20.220Z,28.20
2018-08-06T11:13:48.552Z,28.49
2018-08-06T11:16:16.903Z,28.57
2018-08-06T11:18:45.256Z,29.78
2018-08-06T11:21:13.609Z,29.26
2018-08-06T11:23:41.953Z,30.14
2018-08-06T11:26:10.285Z,30.53
2018-08-06T11:28:38.707Z,31.66
2018-08-06T11:31:07.046Z,31.10
2018-08-06T11:33:35.376Z,32.60
2018-08-06T11:36:03.757Z,32.48
2018-08-06T11:38:32.215Z,33.56
2018-08-06T11:41:00.561Z,36.36
2018-08-06T11:43:28.976Z,35.36
2018-08-06T11:45:57.283Z,35.77
2018-08-06T11:48:25.661Z,34.89
2018-08-06T11:50:54.030Z,35.68
2018-08-06T11:53:22.388Z,36.28
2018-08-06T11:55:50.701Z,37.28
2018-08-06T11:58:19.024Z,39.85
2018-08-06T12:00:47.417Z,38.16
2018-08-06T12:03:15.800Z,38.64
2018-08-06T12:05:44.144Z,38.18
2018-08-06T12:08:12.492Z,38.52
2018-08-06T12:10:40.819Z,37.29
2018-08-06T12:13:09.163Z,38.09
2018-08-06T12:15:37.514Z,38.00
2018-08-06T12:18:06.690Z,37.58
2018-08-06T12:20:35.056Z,37.56
2018-08-06T12:23:03.383Z,37.87
2018-08-06T12:25:31.747Z,37.42
2018-08-06T12:28:00.104Z,37.05
2018-08-06T12:30:28.423Z,37.79
2018-08-06T12:32:56.761Z,37.77
2018-08-06T12:35:25.080Z,36.76
2018-08-06T12:37:53.416Z,37.35
2018-08-06T12:40:22.841Z,38.04
2018-08-06T12:42:51.425Z,38.08
2018-08-06T12:45:19.763Z,39.36
2018-08-06T12:47:48.492Z,38.31
2018-08-06T12:50:17.528Z,38.08
2018-08-06T12:52:46.069Z,38.06
2018-08-06T12:55:15.968Z,38.39
2018-08-06T12:57:44.920Z,38.18
2018-08-06T13:00:18.669Z,37.95
2018-08-06T13:02:47.767Z,37.57
2018-08-06T13:05:16.358Z,38.18
2018-08-06T13:07:44.733Z,37.96
2018-08-06T13:10:13.318Z,38.32
2018-08-06T13:12:41.659Z,38.37
2018-08-06T13:15:11.894Z,37.99
2018-08-06T13:17:40.647Z,37.40
2018-08-06T13:20:09.579Z,37.62
2018-08-06T13:22:37.900Z,38.10
2018-08-06T13:25:08.720Z,37.99
2018-08-06T13:27:37.214Z,38.08
2018-08-06T13:30:08.434Z,38.21
2018-08-06T13:32:36.800Z,38.94
2018-08-06T13:35:05.283Z,37.64
2018-08-06T13:37:33.634Z,38.50
2018-08-06T13:40:01.991Z,39.64
2018-08-06T13:42:30.766Z,38.47
2018-08-06T13:44:59.184Z,38.03
2018-08-06T13:47:27.510Z,37.54
2018-08-06T13:49:55.891Z,37.60
2018-08-06T13:52:24.531Z,37.91
2018-08-06T13:54:52.894Z,38.00
2018-08-06T13:57:21.283Z,37.02
2018-08-06T13:59:49.620Z,37.28
2018-08-06T14:02:19.155Z,37.57
2018-08-06T14:04:47.508Z,37.30
2018-08-06T14:07:15.976Z,38.39
2018-08-06T14:09:44.466Z,38.19
2018-08-06T14:12:12.845Z,37.99
2018-08-06T14:14:41.208Z,38.23
2018-08-06T14:17:09.566Z,38.30
2018-08-06T14:19:37.915Z,37.71
2018-08-06T14:22:06.264Z,37.64
2018-08-06T14:24:34.611Z,38.23
2018-08-06T14:27:03.027Z,38.26
2018-08-06T14:29:31.403Z,38.18
2018-08-06T14:31:59.748Z,37.51
2018-08-06T14:34:28.132Z,37.17
2018-08-06T14:36:56.506Z,37.79
2018-08-06T14:39:24.881Z,37.66
2018-08-06T14:41:53.239Z,37.84
2018-08-06T14:44:21.566Z,37.63
2018-08-06T14:46:49.952Z,37.08
2018-08-06T14:49:19.023Z,37.37
2018-08-06T14:51:47.455Z,37.82
2018-08-06T14:54:15.768Z,37.51
2018-08-06T14:56:44.115Z,37.05
2018-08-06T14:59:12.476Z,37.28
2018-08-06T15:01:40.808Z,37.54
2018-08-06T15:04:09.253Z,37.76
2018-08-06T15:06:37.588Z,38.83
2018-08-06T15:09:08.840Z,38.22
2018-08-06T15:11:37.331Z,38.11
2018-08-06T15:14:06.507Z,37.75
2018-08-06T15:16:34.902Z,37.81
2018-08-06T15:19:03.325Z,37.51
2018-08-06T15:21:31.657Z,36.75
2018-08-06T15:24:00.248Z,36.70
2018-08-06T15:26:28.624Z,37.24
2018-08-06T15:28:57.072Z,36.65
2018-08-06T15:31:25.469Z,37.13
2018-08-06T15:33:54.162Z,36.83
2018-08-06T15:36:22.693Z,36.20
2018-08-06T15:38:51.029Z,36.44
2018-08-06T15:41:19.406Z,37.10
2018-08-06T15:43:47.830Z,36.30
2018-08-06T15:46:16.168Z,36.62
2018-08-06T15:48:45.060Z,36.37
2018-08-06T15:51:13.457Z,37.61
2018-08-06T15:53:41.793Z,38.58
2018-08-06T15:56:10.121Z,37.94
2018-08-06T15:58:38.520Z,38.32
2018-08-06T16:01:06.930Z,38.71
2018-08-06T16:03:35.364Z,38.18
2018-08-06T16:06:03.712Z,38.47
2018-08-06T16:08:32.089Z,38.26
2018-08-06T16:11:00.427Z,38.14
2018-08-06T16:13:28.849Z,37.78
2018-08-06T16:15:57.192Z,37.45
2018-08-06T16:18:25.548Z,38.43
2018-08-06T16:20:53.953Z,37.54
2018-08-06T16:23:22.401Z,37.29
2018-08-06T16:25:50.818Z,36.09
2018-08-06T16:28:19.229Z,36.98
2018-08-06T16:30:47.650Z,36.50
2018-08-06T16:33:16.093Z,37.36
2018-08-06T16:35:44.504Z,37.35
2018-08-06T16:38:12.920Z,37.66
2018-08-06T16:40:41.329Z,36.96
2018-08-06T16:43:09.703Z,36.88
2018-08-06T16:45:38.050Z,36.95
2018-08-06T16:48:06.459Z,36.77
2018-08-06T16:50:34.841Z,36.91
2018-08-06T16:53:03.225Z,35.99
2018-08-06T16:55:31.707Z,36.14
2018-08-06T16:58:00.123Z,36.29
2018-08-06T17:00:28.469Z,37.21
2018-08-06T17:02:56.831Z,36.24
2018-08-06T17:05:25.180Z,36.30
2018-08-06T17:07:53.526Z,35.73
2018-08-06T17:10:22.267Z,35.50
2018-08-06T17:12:52.170Z,36.23
2018-08-06T17:15:21.500Z,35.44
2018-08-06T17:17:51.068Z,36.65
2018-08-06T17:20:20.861Z,36.10
2018-08-06T17:22:50.204Z,35.89
2018-08-06T17:25:18.715Z,35.31
2018-08-06T17:27:47.100Z,34.87
2018-08-06T17:30:16.293Z,35.70
2018-08-06T17:32:44.665Z,34.81
2018-08-06T17:35:13.675Z,35.96
2018-08-06T17:37:42.115Z,36.28
2018-08-06T17:40:15.724Z,35.85
2018-08-06T17:42:44.130Z,35.81
2018-08-06T17:45:15.741Z,35.02
2018-08-06T17:47:44.152Z,35.12
2018-08-06T17:50:14.789Z,35.07
2018-08-06T17:52:43.864Z,35.36
2018-08-06T17:55:12.272Z,35.17
2018-08-06T17:57:40.768Z,35.94
2018-08-06T18:00:10.068Z,35.91
2018-08-06T18:02:38.490Z,35.35
2018-08-06T18:05:08.924Z,35.23
2018-08-06T18:07:37.500Z,35.21
2018-08-06T18:10:07.682Z,36.26
2018-08-06T18:12:36.231Z,37.05
2018-08-06T18:15:04.930Z,36.46
2018-08-06T18:17:33.390Z,36.49
2018-08-06T18:20:01.953Z,36.15
2018-08-06T18:22:30.338Z,36.23
2018-08-06T18:24:58.755Z,35.80
2018-08-06T18:27:27.129Z,36.78
2018-08-06T18:29:55.536Z,36.36
2018-08-06T18:32:23.908Z,36.66
2018-08-06T18:34:52.336Z,36.40
2018-08-06T18:37:20.788Z,36.85
2018-08-06T18:39:49.224Z,37.41
2018-08-06T18:42:17.679Z,37.86
2018-08-06T18:44:46.066Z,38.14
2018-08-06T18:47:14.541Z,39.61
2018-08-06T18:49:42.918Z,39.33
2018-08-06T18:52:11.285Z,38.79
2018-08-06T18:54:39.630Z,39.63
2018-08-06T18:57:08.006Z,39.73
2018-08-06T18:59:36.437Z,39.96
2018-08-06T19:02:04.917Z,39.88
2018-08-06T19:04:33.395Z,40.60
2018-08-06T19:07:01.846Z,40.62
2018-08-06T19:09:30.329Z,40.14
2018-08-06T19:12:03.978Z,40.13
2018-08-06T19:14:32.455Z,40.82
2018-08-06T19:17:00.923Z,40.54
2018-08-06T19:19:29.918Z,41.33
2018-08-06T19:21:58.909Z,40.68
2018-08-06T19:24:32.647Z,41.02
2018-08-06T19:27:01.094Z,41.14
2018-08-06T19:29:29.604Z,41.20
2018-08-06T19:31:58.054Z,41.49
2018-08-06T19:34:26.534Z,41.72
2018-08-06T19:37:00.346Z,41.82
2018-08-06T19:39:28.755Z,41.26
2018-08-06T19:41:57.162Z,41.89
2018-08-06T19:44:25.588Z,42.36
2018-08-06T19:46:53.964Z,42.58
2018-08-06T19:49:27.804Z,42.25
2018-08-06T19:51:56.288Z,42.38
2018-08-06T19:54:24.755Z,43.60
2018-08-06T19:56:53.192Z,44.12
2018-08-06T19:59:21.734Z,44.30
2018-08-06T20:01:50.236Z,45.00
2018-08-06T20:04:18.654Z,44.28
2018-08-06T20:06:47.135Z,44.08
2018-08-06T20:09:15.618Z,43.97
2018-08-06T20:11:44.006Z,44.44
2018-08-06T20:14:12.374Z,44.96
2018-08-06T20:16:40.759Z,45.05
2018-08-06T20:19:09.905Z,45.40
2018-08-06T20:21:38.349Z,45.12
2018-08-06T20:24:07.230Z,45.56
2018-08-06T20:26:35.720Z,46.18
2018-08-06T20:29:04.166Z,45.88
2018-08-06T20:31:32.521Z,45.83
2018-08-06T20:34:00.926Z,46.38
2018-08-06T20:36:29.389Z,44.76
2018-08-06T20:38:57.868Z,44.80
2018-08-06T20:41:26.223Z,44.84
2018-08-06T20:43:54.644Z,44.47
2018-08-06T20:46:23.002Z,44.54
2018-08-06T20:48:51.423Z,46.09
2018-08-06T20:51:19.812Z,45.10
2018-08-06T20:53:48.199Z,45.55
2018-08-06T20:56:16.576Z,44.95
2018-08-06T20:58:45.143Z,45.10
2018-08-06T21:01:13.543Z,44.99
2018-08-06T21:03:41.900Z,45.40
2018-08-06T21:06:10.344Z,45.54
2018-08-06T21:08:38.761Z,45.21
2018-08-06T21:11:07.708Z,46.06
2018-08-06T21:13:36.214Z,46.09
2018-08-06T21:16:04.642Z,45.91
2018-08-06T21:18:33.228Z,45.63
2018-08-06T21:21:01.599Z,45.68
2018-08-06T21:23:29.961Z,46.56
2018-08-06T21:25:58.396Z,45.62
2018-08-06T21:28:26.881Z,46.00
2018-08-06T21:30:55.246Z,46.23
2018-08-06T21:33:23.686Z,46.20
2018-08-06T21:35:52.109Z,46.04
2018-08-06T21:38:20.527Z,46.60
2018-08-06T21:40:48.906Z,45.91
2018-08-06T21:43:17.358Z,46.80
2018-08-06T21:45:45.798Z,45.95
2018-08-06T21:48:14.215Z,46.19
2018-08-06T21:50:42.628Z,46.58
2018-08-06T21:53:10.995Z,45.15
2018-08-06T21:55:39.435Z,46.21
2018-08-06T21:58:07.827Z,46.35
2018-08-06T22:00:38.830Z,46.69
2018-08-06T22:03:14.694Z,45.72
2018-08-06T22:05:43.304Z,46.34
2018-08-06T22:08:11.730Z,45.11
2018-08-06T22:10:40.354Z,45.41
2018-08-06T22:13:09.551Z,45.77
2018-08-06T22:15:38.010Z,45.92
2018-08-06T22:18:07.105Z,45.80
2018-08-06T22:20:35.478Z,45.48
2018-08-06T22:23:03.848Z,46.69
2018-08-06T22:25:32.258Z,47.34
2018-08-06T22:28:00.683Z,46.28
2018-08-06T22:30:29.108Z,47.00
2018-08-06T22:32:57.553Z,47.54
2018-08-06T22:35:25.916Z,46.64
2018-08-06T22:37:54.400Z,46.26
2018-08-06T22:40:22.805Z,46.28
2018-08-06T22:42:51.169Z,46.24
2018-08-06T22:45:19.552Z,47.03
2018-08-06T22:47:47.954Z,47.64
2018-08-06T22:50:16.320Z,46.68
2018-08-06T22:52:44.700Z,47.81
2018-08-06T22:55:13.536Z,46.81
2018-08-06T22:57:42.538Z,47.94
2018-08-06T23:00:12.952Z,47.36
2018-08-06T23:02:41.734Z,46.58
2018-08-06T23:05:11.004Z,46.73
2018-08-06T23:07:39.435Z,48.39
2018-08-06T23:10:10.232Z,47.46
2018-08-06T23:12:38.582Z,46.48
2018-08-06T23:15:09.243Z,47.41
2018-08-06T23:17:37.843Z,46.11
2018-08-06T23:20:07.038Z,46.47
2018-08-06T23:22:35.420Z,48.09
2018-08-06T23:25:04.199Z,46.51
2018-08-06T23:27:32.539Z,46.77
2018-08-06T23:30:01.168Z,48.26
2018-08-06T23:32:29.548Z,47.24
2018-08-06T23:34:57.931Z,48.65
2018-08-06T23:37:26.325Z,47.08
2018-08-06T23:39:54.739Z,47.24
2018-08-06T23:42:23.093Z,47.00
2018-08-06T23:44:51.473Z,48.05
2018-08-06T23:47:19.815Z,47.67
2018-08-06T23:49:48.212Z,50.38
2018-08-06T23:52:16.652Z,50.36
2018-08-06T23:54:45.004Z,49.79
2018-08-06T23:57:13.366Z,49.67
2018-08-06T23:59:41.785Z,48.53
